sensor_id;sensor_type;location;lat;lon;timestamp;temperature;humidity
4052;DHT22;2040;50.924;11.604;2023-03-03T00:02:17;0.90;99.90
4052;DHT22;2040;50.924;11.604;2023-03-03T00:04:43;0.80;99.90
4052;DHT22;2040;50.924;11.604;2023-03-03T00:07:09;0.90;99.90
4052;DHT22;2040;50.924;11.604;2023-03-03T00:09:35;0.80;99.90
4052;DHT22;2040;50.924;11.604;2023-03-03T00:12:02;0.80;99.90
4052;DHT22;2040;50.924;11.604;2023-03-03T00:14:42;0.70;99.90
4052;DHT22;2040;50.924;11.604;2023-03-03T00:17:24;0.80;99.90
4052;DHT22;2040;50.924;11.604;2023-03-03T00:19:51;0.70;99.90
4052;DHT22;2040;50.924;11.604;2023-03-03T00:22:36;0.60;99.90
4052;DHT22;2040;50.924;11.604;2023-03-03T00:27:49;0.50;99.90
4052;DHT22;2040;50.924;11.604;2023-03-03T00:30:24;0.50;99.90
4052;DHT22;2040;50.924;11.604;2023-03-03T00:32:50;0.50;99.90
4052;DHT22;2040;50.924;11.604;2023-03-03T00:35:27;0.60;99.90
4052;DHT22;2040;50.924;11.604;2023-03-03T00:37:56;0.50;99.90
4052;DHT22;2040;50.924;11.604;2023-03-03T00:40:32;0.50;99.90
4052;DHT22;2040;50.924;11.604;2023-03-03T00:42:59;0.50;99.90
4052;DHT22;2040;50.924;11.604;2023-03-03T00:45:51;0.40;99.90
4052;DHT22;2040;50.924;11.604;2023-03-03T00:53:48;0.30;99.90
4052;DHT22;2040;50.924;11.604;2023-03-03T00:56:14;0.30;99.90
4052;DHT22;2040;50.924;11.604;2023-03-03T00:58:40;0.30;99.90
4052;DHT22;2040;50.924;11.604;2023-03-03T01:01:06;0.30;99.90
4052;DHT22;2040;50.924;11.604;2023-03-03T01:03:31;0.30;99.90
4052;DHT22;2040;50.924;11.604;2023-03-03T01:05:57;0.30;99.90
4052;DHT22;2040;50.924;11.604;2023-03-03T01:08:22;0.20;99.90
4052;DHT22;2040;50.924;11.604;2023-03-03T01:10:53;0.30;99.90
4052;DHT22;2040;50.924;11.604;2023-03-03T01:13:24;0.20;99.90
4052;DHT22;2040;50.924;11.604;2023-03-03T01:15:50;0.20;99.90
4052;DHT22;2040;50.924;11.604;2023-03-03T01:18:16;0.20;99.90
4052;DHT22;2040;50.924;11.604;2023-03-03T01:20:41;0.20;99.90
4052;DHT22;2040;50.924;11.604;2023-03-03T01:23:07;0.10;99.90
4052;DHT22;2040;50.924;11.604;2023-03-03T01:25:33;0.10;99.90
4052;DHT22;2040;50.924;11.604;2023-03-03T01:27:58;0.10;99.90
4052;DHT22;2040;50.924;11.604;2023-03-03T01:30:24;0.10;99.90
4052;DHT22;2040;50.924;11.604;2023-03-03T01:32:50;0.00;99.90
4052;DHT22;2040;50.924;11.604;2023-03-03T01:35:16;0.00;99.90
4052;DHT22;2040;50.924;11.604;2023-03-03T01:37:42;0.00;99.90
4052;DHT22;2040;50.924;11.604;2023-03-03T01:40:17;-0.10;99.90
4052;DHT22;2040;50.924;11.604;2023-03-03T01:42:43;-0.10;99.90
4052;DHT22;2040;50.924;11.604;2023-03-03T01:47:37;-0.10;99.90
4052;DHT22;2040;50.924;11.604;2023-03-03T01:50:11;-0.10;99.90
4052;DHT22;2040;50.924;11.604;2023-03-03T01:52:42;-0.20;99.90
4052;DHT22;2040;50.924;11.604;2023-03-03T01:55:15;-0.20;99.90
4052;DHT22;2040;50.924;11.604;2023-03-03T01:57:48;-0.20;99.90
4052;DHT22;2040;50.924;11.604;2023-03-03T02:00:15;-0.30;99.90
4052;DHT22;2040;50.924;11.604;2023-03-03T02:02:41;-0.30;99.90
4052;DHT22;2040;50.924;11.604;2023-03-03T02:05:08;-0.40;99.90
4052;DHT22;2040;50.924;11.604;2023-03-03T02:07:35;-0.30;99.90
4052;DHT22;2040;50.924;11.604;2023-03-03T02:10:05;-0.30;99.90
4052;DHT22;2040;50.924;11.604;2023-03-03T02:12:44;-0.30;99.90
4052;DHT22;2040;50.924;11.604;2023-03-03T02:17:51;-0.40;99.90
4052;DHT22;2040;50.924;11.604;2023-03-03T02:20:43;-0.40;99.90
4052;DHT22;2040;50.924;11.604;2023-03-03T02:23:33;-0.30;99.90
4052;DHT22;2040;50.924;11.604;2023-03-03T02:26:13;-0.30;99.90
4052;DHT22;2040;50.924;11.604;2023-03-03T02:28:40;-0.40;99.90
4052;DHT22;2040;50.924;11.604;2023-03-03T02:31:09;-0.40;99.90
4052;DHT22;2040;50.924;11.604;2023-03-03T02:33:38;-0.30;99.90
4052;DHT22;2040;50.924;11.604;2023-03-03T02:36:04;-0.30;99.90
4052;DHT22;2040;50.924;11.604;2023-03-03T02:44:26;-0.30;99.90
4052;DHT22;2040;50.924;11.604;2023-03-03T02:46:53;-0.30;99.90
4052;DHT22;2040;50.924;11.604;2023-03-03T02:49:22;-0.30;99.90
4052;DHT22;2040;50.924;11.604;2023-03-03T02:51:48;-0.30;99.90
4052;DHT22;2040;50.924;11.604;2023-03-03T02:54:16;-0.40;99.90
4052;DHT22;2040;50.924;11.604;2023-03-03T02:56:41;-0.50;99.90
4052;DHT22;2040;50.924;11.604;2023-03-03T02:59:07;-0.40;99.90
4052;DHT22;2040;50.924;11.604;2023-03-03T03:01:33;-0.50;99.90
4052;DHT22;2040;50.924;11.604;2023-03-03T03:04:09;-0.60;99.90
4052;DHT22;2040;50.924;11.604;2023-03-03T03:06:35;-0.60;99.90
4052;DHT22;2040;50.924;11.604;2023-03-03T03:09:01;-0.60;99.90
4052;DHT22;2040;50.924;11.604;2023-03-03T03:11:27;-0.70;99.90
4052;DHT22;2040;50.924;11.604;2023-03-03T03:13:53;-0.80;99.90
4052;DHT22;2040;50.924;11.604;2023-03-03T03:16:18;-0.90;99.90
4052;DHT22;2040;50.924;11.604;2023-03-03T03:18:44;-0.90;99.90
4052;DHT22;2040;50.924;11.604;2023-03-03T03:21:11;-0.90;99.90
4052;DHT22;2040;50.924;11.604;2023-03-03T03:23:38;-0.80;99.90
4052;DHT22;2040;50.924;11.604;2023-03-03T03:26:04;-0.80;99.90
4052;DHT22;2040;50.924;11.604;2023-03-03T03:28:30;-0.80;99.90
4052;DHT22;2040;50.924;11.604;2023-03-03T03:30:56;-0.80;99.90
4052;DHT22;2040;50.924;11.604;2023-03-03T03:33:22;-0.80;99.90
4052;DHT22;2040;50.924;11.604;2023-03-03T03:35:48;-0.80;99.90
4052;DHT22;2040;50.924;11.604;2023-03-03T03:38:15;-0.80;99.90
4052;DHT22;2040;50.924;11.604;2023-03-03T03:40:41;-0.80;99.90
4052;DHT22;2040;50.924;11.604;2023-03-03T03:43:06;-0.80;99.90
4052;DHT22;2040;50.924;11.604;2023-03-03T03:45:32;-0.70;99.90
4052;DHT22;2040;50.924;11.604;2023-03-03T03:47:58;-0.70;99.90
4052;DHT22;2040;50.924;11.604;2023-03-03T03:50:24;-0.70;99.90
4052;DHT22;2040;50.924;11.604;2023-03-03T03:52:50;-0.70;99.90
4052;DHT22;2040;50.924;11.604;2023-03-03T03:55:16;-0.70;99.90
4052;DHT22;2040;50.924;11.604;2023-03-03T03:57:41;-0.70;99.90
4052;DHT22;2040;50.924;11.604;2023-03-03T04:00:09;-0.80;99.90
4052;DHT22;2040;50.924;11.604;2023-03-03T04:02:35;-0.80;99.90
4052;DHT22;2040;50.924;11.604;2023-03-03T04:05:01;-0.70;99.90
4052;DHT22;2040;50.924;11.604;2023-03-03T04:07:27;-0.70;99.90
4052;DHT22;2040;50.924;11.604;2023-03-03T04:09:53;-0.80;99.90
4052;DHT22;2040;50.924;11.604;2023-03-03T04:12:19;-0.80;99.90
4052;DHT22;2040;50.924;11.604;2023-03-03T04:14:44;-0.80;99.90
4052;DHT22;2040;50.924;11.604;2023-03-03T04:17:22;-0.80;99.90
4052;DHT22;2040;50.924;11.604;2023-03-03T04:19:52;-0.70;99.90
4052;DHT22;2040;50.924;11.604;2023-03-03T04:22:18;-0.70;99.90
4052;DHT22;2040;50.924;11.604;2023-03-03T04:24:43;-0.70;99.90
4052;DHT22;2040;50.924;11.604;2023-03-03T04:27:09;-0.70;99.90
4052;DHT22;2040;50.924;11.604;2023-03-03T04:29:34;-0.70;99.90
4052;DHT22;2040;50.924;11.604;2023-03-03T04:32:00;-0.70;99.90
4052;DHT22;2040;50.924;11.604;2023-03-03T04:34:26;-0.80;99.90
4052;DHT22;2040;50.924;11.604;2023-03-03T04:36:51;-0.80;99.90
4052;DHT22;2040;50.924;11.604;2023-03-03T04:39:17;-0.90;99.90
4052;DHT22;2040;50.924;11.604;2023-03-03T04:41:43;-0.90;99.90
4052;DHT22;2040;50.924;11.604;2023-03-03T04:44:08;-0.80;99.90
4052;DHT22;2040;50.924;11.604;2023-03-03T04:46:34;-0.70;99.90
4052;DHT22;2040;50.924;11.604;2023-03-03T04:48:59;-0.70;99.90
4052;DHT22;2040;50.924;11.604;2023-03-03T04:51:25;-0.70;99.90
4052;DHT22;2040;50.924;11.604;2023-03-03T04:53:51;-0.70;99.90
4052;DHT22;2040;50.924;11.604;2023-03-03T04:56:16;-0.80;99.90
4052;DHT22;2040;50.924;11.604;2023-03-03T04:58:42;-0.80;99.90
4052;DHT22;2040;50.924;11.604;2023-03-03T05:01:12;-0.70;99.90
4052;DHT22;2040;50.924;11.604;2023-03-03T05:03:38;-0.70;99.90
4052;DHT22;2040;50.924;11.604;2023-03-03T05:06:03;-0.80;99.90
4052;DHT22;2040;50.924;11.604;2023-03-03T05:08:29;-0.80;99.90
4052;DHT22;2040;50.924;11.604;2023-03-03T05:10:54;-0.90;99.90
4052;DHT22;2040;50.924;11.604;2023-03-03T05:13:20;-0.80;99.90
4052;DHT22;2040;50.924;11.604;2023-03-03T05:15:50;-0.80;99.90
4052;DHT22;2040;50.924;11.604;2023-03-03T05:18:18;-0.80;99.90
4052;DHT22;2040;50.924;11.604;2023-03-03T05:20:44;-0.80;99.90
4052;DHT22;2040;50.924;11.604;2023-03-03T05:23:09;-0.80;99.90
4052;DHT22;2040;50.924;11.604;2023-03-03T05:25:35;-0.80;99.90
4052;DHT22;2040;50.924;11.604;2023-03-03T05:28:01;-0.70;99.90
4052;DHT22;2040;50.924;11.604;2023-03-03T05:30:26;-0.90;99.90
4052;DHT22;2040;50.924;11.604;2023-03-03T05:32:52;-0.80;99.90
4052;DHT22;2040;50.924;11.604;2023-03-03T05:35:17;-0.90;99.90
4052;DHT22;2040;50.924;11.604;2023-03-03T05:37:45;-1.00;99.90
4052;DHT22;2040;50.924;11.604;2023-03-03T05:40:13;-1.00;99.90
4052;DHT22;2040;50.924;11.604;2023-03-03T05:42:39;-1.00;99.90
4052;DHT22;2040;50.924;11.604;2023-03-03T05:45:05;-1.00;99.90
4052;DHT22;2040;50.924;11.604;2023-03-03T05:47:31;-1.00;99.90
4052;DHT22;2040;50.924;11.604;2023-03-03T05:49:56;-1.00;99.90
4052;DHT22;2040;50.924;11.604;2023-03-03T05:52:22;-0.90;99.90
4052;DHT22;2040;50.924;11.604;2023-03-03T05:54:49;-0.90;99.90
4052;DHT22;2040;50.924;11.604;2023-03-03T05:57:14;-1.00;99.90
4052;DHT22;2040;50.924;11.604;2023-03-03T05:59:40;-1.00;99.90
4052;DHT22;2040;50.924;11.604;2023-03-03T06:02:06;-1.00;99.90
4052;DHT22;2040;50.924;11.604;2023-03-03T06:04:32;-1.00;99.90
4052;DHT22;2040;50.924;11.604;2023-03-03T06:06:58;-1.10;99.90
4052;DHT22;2040;50.924;11.604;2023-03-03T06:09:23;-1.00;99.90
4052;DHT22;2040;50.924;11.604;2023-03-03T06:11:50;-1.00;99.90
4052;DHT22;2040;50.924;11.604;2023-03-03T06:14:21;-1.00;99.90
4052;DHT22;2040;50.924;11.604;2023-03-03T06:16:47;-1.00;99.90
4052;DHT22;2040;50.924;11.604;2023-03-03T06:19:13;-1.00;99.90
4052;DHT22;2040;50.924;11.604;2023-03-03T06:21:40;-1.00;99.90
4052;DHT22;2040;50.924;11.604;2023-03-03T06:24:06;-1.10;99.90
4052;DHT22;2040;50.924;11.604;2023-03-03T06:26:32;-1.10;99.90
4052;DHT22;2040;50.924;11.604;2023-03-03T06:28:58;-1.10;99.90
4052;DHT22;2040;50.924;11.604;2023-03-03T06:31:24;-1.10;99.90
4052;DHT22;2040;50.924;11.604;2023-03-03T06:33:49;-1.10;99.90
4052;DHT22;2040;50.924;11.604;2023-03-03T06:36:16;-1.20;99.90
4052;DHT22;2040;50.924;11.604;2023-03-03T06:38:42;-1.30;99.90
4052;DHT22;2040;50.924;11.604;2023-03-03T06:41:07;-1.20;99.90
4052;DHT22;2040;50.924;11.604;2023-03-03T06:43:34;-1.20;99.90
4052;DHT22;2040;50.924;11.604;2023-03-03T06:46:00;-1.20;99.90
4052;DHT22;2040;50.924;11.604;2023-03-03T06:48:26;-1.20;99.90
4052;DHT22;2040;50.924;11.604;2023-03-03T06:50:51;-1.20;99.90
4052;DHT22;2040;50.924;11.604;2023-03-03T06:53:18;-1.10;99.90
4052;DHT22;2040;50.924;11.604;2023-03-03T06:55:44;-1.10;99.90
4052;DHT22;2040;50.924;11.604;2023-03-03T06:58:19;-1.20;99.90
4052;DHT22;2040;50.924;11.604;2023-03-03T07:00:52;-1.20;99.90
4052;DHT22;2040;50.924;11.604;2023-03-03T07:03:22;-1.20;99.90
4052;DHT22;2040;50.924;11.604;2023-03-03T07:05:48;-1.30;99.90
4052;DHT22;2040;50.924;11.604;2023-03-03T07:08:19;-1.30;99.90
4052;DHT22;2040;50.924;11.604;2023-03-03T07:10:46;-1.30;99.90
4052;DHT22;2040;50.924;11.604;2023-03-03T07:15:48;-1.30;99.90
4052;DHT22;2040;50.924;11.604;2023-03-03T07:20:55;-1.20;99.90
4052;DHT22;2040;50.924;11.604;2023-03-03T07:23:24;-1.10;99.90
4052;DHT22;2040;50.924;11.604;2023-03-03T07:25:51;-1.10;99.90
4052;DHT22;2040;50.924;11.604;2023-03-03T07:28:28;-1.20;99.90
4052;DHT22;2040;50.924;11.604;2023-03-03T07:30:56;-1.30;99.90
4052;DHT22;2040;50.924;11.604;2023-03-03T07:33:26;-1.30;99.90
4052;DHT22;2040;50.924;11.604;2023-03-03T07:35:54;-1.30;99.90
4052;DHT22;2040;50.924;11.604;2023-03-03T07:41:00;-1.20;99.90
4052;DHT22;2040;50.924;11.604;2023-03-03T07:43:38;-1.10;99.90
4052;DHT22;2040;50.924;11.604;2023-03-03T07:48:45;-1.20;99.90
4052;DHT22;2040;50.924;11.604;2023-03-03T07:54:39;-1.30;99.90
4052;DHT22;2040;50.924;11.604;2023-03-03T07:57:28;-1.20;99.90
4052;DHT22;2040;50.924;11.604;2023-03-03T08:00:07;-1.20;99.90
4052;DHT22;2040;50.924;11.604;2023-03-03T08:02:56;-1.10;99.90
4052;DHT22;2040;50.924;11.604;2023-03-03T08:05:42;-1.10;99.90
4052;DHT22;2040;50.924;11.604;2023-03-03T08:15:41;-0.90;99.90
4052;DHT22;2040;50.924;11.604;2023-03-03T08:18:59;-1.00;99.90
4052;DHT22;2040;50.924;11.604;2023-03-03T08:21:25;-0.80;99.90
4052;DHT22;2040;50.924;11.604;2023-03-03T08:23:51;-0.80;99.90
4052;DHT22;2040;50.924;11.604;2023-03-03T08:26:21;-0.90;99.90
4052;DHT22;2040;50.924;11.604;2023-03-03T08:28:49;-0.90;99.90
4052;DHT22;2040;50.924;11.604;2023-03-03T08:31:16;-0.90;99.90
4052;DHT22;2040;50.924;11.604;2023-03-03T08:33:44;-0.80;99.90
4052;DHT22;2040;50.924;11.604;2023-03-03T08:36:10;-0.80;99.90
4052;DHT22;2040;50.924;11.604;2023-03-03T08:38:36;-0.80;99.90
4052;DHT22;2040;50.924;11.604;2023-03-03T08:41:02;-0.80;99.90
4052;DHT22;2040;50.924;11.604;2023-03-03T08:43:28;-0.80;99.90
4052;DHT22;2040;50.924;11.604;2023-03-03T08:45:57;-0.80;99.90
4052;DHT22;2040;50.924;11.604;2023-03-03T08:48:24;-0.80;99.90
4052;DHT22;2040;50.924;11.604;2023-03-03T08:50:50;-0.70;99.90
4052;DHT22;2040;50.924;11.604;2023-03-03T08:53:17;-0.80;99.90
4052;DHT22;2040;50.924;11.604;2023-03-03T08:55:44;-0.80;99.90
4052;DHT22;2040;50.924;11.604;2023-03-03T08:58:10;-0.90;99.90
4052;DHT22;2040;50.924;11.604;2023-03-03T09:00:36;-0.80;99.90
4052;DHT22;2040;50.924;11.604;2023-03-03T09:03:03;-0.80;99.90
4052;DHT22;2040;50.924;11.604;2023-03-03T09:05:31;-0.80;99.90
4052;DHT22;2040;50.924;11.604;2023-03-03T09:07:57;-0.80;99.90
4052;DHT22;2040;50.924;11.604;2023-03-03T09:10:25;-1.00;99.90
4052;DHT22;2040;50.924;11.604;2023-03-03T09:12:57;-0.90;99.90
4052;DHT22;2040;50.924;11.604;2023-03-03T09:15:33;-0.70;99.90
4052;DHT22;2040;50.924;11.604;2023-03-03T09:18:16;-0.60;99.90
4052;DHT22;2040;50.924;11.604;2023-03-03T09:20:47;-0.70;99.90
4052;DHT22;2040;50.924;11.604;2023-03-03T09:23:35;-0.80;99.90
4052;DHT22;2040;50.924;11.604;2023-03-03T09:29:23;-0.70;99.90
4052;DHT22;2040;50.924;11.604;2023-03-03T09:31:54;-0.60;99.90
4052;DHT22;2040;50.924;11.604;2023-03-03T09:39:54;-0.50;99.90
4052;DHT22;2040;50.924;11.604;2023-03-03T09:50:52;-0.40;99.90
4052;DHT22;2040;50.924;11.604;2023-03-03T09:56:11;-0.40;99.90
4052;DHT22;2040;50.924;11.604;2023-03-03T10:04:52;-0.20;99.90
4052;DHT22;2040;50.924;11.604;2023-03-03T10:07:38;-0.20;99.90
4052;DHT22;2040;50.924;11.604;2023-03-03T10:13:43;-0.20;99.90
4052;DHT22;2040;50.924;11.604;2023-03-03T10:31:04;-0.60;99.90
4052;DHT22;2040;50.924;11.604;2023-03-03T10:36:42;-0.60;99.90
4052;DHT22;2040;50.924;11.604;2023-03-03T10:39:37;-0.40;99.90
4052;DHT22;2040;50.924;11.604;2023-03-03T10:42:28;-0.20;99.90
4052;DHT22;2040;50.924;11.604;2023-03-03T10:45:00;-0.20;99.90
4052;DHT22;2040;50.924;11.604;2023-03-03T10:47:33;-0.10;99.90
4052;DHT22;2040;50.924;11.604;2023-03-03T10:50:20;0.00;99.90
4052;DHT22;2040;50.924;11.604;2023-03-03T10:58:55;0.40;99.90
4052;DHT22;2040;50.924;11.604;2023-03-03T11:07:38;0.30;99.90
4052;DHT22;2040;50.924;11.604;2023-03-03T11:13:35;0.30;99.90
4052;DHT22;2040;50.924;11.604;2023-03-03T11:15:58;0.40;99.90
4052;DHT22;2040;50.924;11.604;2023-03-03T11:18:47;0.30;99.90
4052;DHT22;2040;50.924;11.604;2023-03-03T11:24:16;0.60;99.90
4052;DHT22;2040;50.924;11.604;2023-03-03T11:32:34;0.50;99.90
4052;DHT22;2040;50.924;11.604;2023-03-03T11:38:18;0.70;99.90
4052;DHT22;2040;50.924;11.604;2023-03-03T11:41:18;0.60;99.90
4052;DHT22;2040;50.924;11.604;2023-03-03T11:43:53;0.70;99.90
4052;DHT22;2040;50.924;11.604;2023-03-03T11:46:33;0.60;99.90
4052;DHT22;2040;50.924;11.604;2023-03-03T11:49:22;0.80;99.90
4052;DHT22;2040;50.924;11.604;2023-03-03T11:58:07;0.60;99.90
4052;DHT22;2040;50.924;11.604;2023-03-03T12:03:33;1.10;99.90
4052;DHT22;2040;50.924;11.604;2023-03-03T12:09:19;0.90;99.90
4052;DHT22;2040;50.924;11.604;2023-03-03T12:17:42;0.70;99.90
4052;DHT22;2040;50.924;11.604;2023-03-03T12:25:46;0.70;99.90
4052;DHT22;2040;50.924;11.604;2023-03-03T12:28:20;0.80;99.90
4052;DHT22;2040;50.924;11.604;2023-03-03T12:31:29;0.70;99.90
4052;DHT22;2040;50.924;11.604;2023-03-03T12:34:07;0.90;99.90
4052;DHT22;2040;50.924;11.604;2023-03-03T12:42:38;1.40;99.90
4052;DHT22;2040;50.924;11.604;2023-03-03T12:47:50;1.30;99.90
4052;DHT22;2040;50.924;11.604;2023-03-03T12:55:24;1.40;99.90
4052;DHT22;2040;50.924;11.604;2023-03-03T12:58:08;1.40;99.90
4052;DHT22;2040;50.924;11.604;2023-03-03T13:00:55;1.30;99.90
4052;DHT22;2040;50.924;11.604;2023-03-03T13:06:26;1.50;99.90
4052;DHT22;2040;50.924;11.604;2023-03-03T13:15:12;1.40;99.90
4052;DHT22;2040;50.924;11.604;2023-03-03T13:18:14;1.30;99.90
4052;DHT22;2040;50.924;11.604;2023-03-03T13:20:56;1.50;99.90
4052;DHT22;2040;50.924;11.604;2023-03-03T13:23:45;1.60;99.90
4052;DHT22;2040;50.924;11.604;2023-03-03T13:26:32;1.60;99.90
4052;DHT22;2040;50.924;11.604;2023-03-03T13:29:19;1.70;99.90
4052;DHT22;2040;50.924;11.604;2023-03-03T13:31:51;1.90;99.90
4052;DHT22;2040;50.924;11.604;2023-03-03T13:34:44;1.90;99.90
4052;DHT22;2040;50.924;11.604;2023-03-03T13:37:48;2.00;99.90
4052;DHT22;2040;50.924;11.604;2023-03-03T13:51:52;1.90;99.90
4052;DHT22;2040;50.924;11.604;2023-03-03T14:00:20;1.90;99.90
4052;DHT22;2040;50.924;11.604;2023-03-03T14:05:49;1.90;99.90
4052;DHT22;2040;50.924;11.604;2023-03-03T14:08:45;2.00;99.90
4052;DHT22;2040;50.924;11.604;2023-03-03T14:11:18;2.10;99.90
4052;DHT22;2040;50.924;11.604;2023-03-03T14:14:09;2.20;99.90
4052;DHT22;2040;50.924;11.604;2023-03-03T14:17:01;2.20;99.90
4052;DHT22;2040;50.924;11.604;2023-03-03T14:19:56;2.00;99.90
4052;DHT22;2040;50.924;11.604;2023-03-03T14:22:58;2.10;99.90
4052;DHT22;2040;50.924;11.604;2023-03-03T14:25:56;2.10;99.90
4052;DHT22;2040;50.924;11.604;2023-03-03T14:28:48;2.00;99.90
4052;DHT22;2040;50.924;11.604;2023-03-03T14:31:26;1.90;99.90
4052;DHT22;2040;50.924;11.604;2023-03-03T14:36:31;2.00;99.90
4052;DHT22;2040;50.924;11.604;2023-03-03T14:38:57;1.90;99.90
4052;DHT22;2040;50.924;11.604;2023-03-03T14:41:41;1.80;99.90
4052;DHT22;2040;50.924;11.604;2023-03-03T14:44:20;1.80;99.90
4052;DHT22;2040;50.924;11.604;2023-03-03T14:47:21;1.60;99.90
4052;DHT22;2040;50.924;11.604;2023-03-03T14:49:48;1.50;99.90
4052;DHT22;2040;50.924;11.604;2023-03-03T14:54:42;1.70;99.90
4052;DHT22;2040;50.924;11.604;2023-03-03T15:00:39;1.90;99.90
4052;DHT22;2040;50.924;11.604;2023-03-03T15:05:27;1.70;99.90
4052;DHT22;2040;50.924;11.604;2023-03-03T15:07:57;1.70;99.90
4052;DHT22;2040;50.924;11.604;2023-03-03T15:10:38;1.70;99.90
4052;DHT22;2040;50.924;11.604;2023-03-03T15:18:30;1.30;99.90
4052;DHT22;2040;50.924;11.604;2023-03-03T15:21:13;1.40;99.90
4052;DHT22;2040;50.924;11.604;2023-03-03T15:24:09;1.50;99.90
4052;DHT22;2040;50.924;11.604;2023-03-03T15:26:58;1.50;99.90
4052;DHT22;2040;50.924;11.604;2023-03-03T15:32:45;1.60;99.90
4052;DHT22;2040;50.924;11.604;2023-03-03T15:35:41;1.50;99.90
4052;DHT22;2040;50.924;11.604;2023-03-03T15:38:28;1.50;99.90
4052;DHT22;2040;50.924;11.604;2023-03-03T15:46:38;1.70;99.90
4052;DHT22;2040;50.924;11.604;2023-03-03T15:49:45;1.70;99.90
4052;DHT22;2040;50.924;11.604;2023-03-03T15:52:32;1.60;99.90
4052;DHT22;2040;50.924;11.604;2023-03-03T15:58:23;1.70;99.90
4052;DHT22;2040;50.924;11.604;2023-03-03T16:01:26;1.70;99.90
4052;DHT22;2040;50.924;11.604;2023-03-03T16:03:59;1.70;99.90
4052;DHT22;2040;50.924;11.604;2023-03-03T16:06:39;1.60;99.90
4052;DHT22;2040;50.924;11.604;2023-03-03T16:09:37;1.40;99.90
4052;DHT22;2040;50.924;11.604;2023-03-03T16:20:39;1.40;99.90
4052;DHT22;2040;50.924;11.604;2023-03-03T16:23:21;1.40;99.90
4052;DHT22;2040;50.924;11.604;2023-03-03T16:28:46;1.40;99.90
4052;DHT22;2040;50.924;11.604;2023-03-03T16:31:20;1.40;99.90
4052;DHT22;2040;50.924;11.604;2023-03-03T16:42:23;1.40;99.90
4052;DHT22;2040;50.924;11.604;2023-03-03T16:45:02;1.40;99.90
4052;DHT22;2040;50.924;11.604;2023-03-03T16:50:29;1.30;99.90
4052;DHT22;2040;50.924;11.604;2023-03-03T17:01:46;1.20;99.90
4052;DHT22;2040;50.924;11.604;2023-03-03T17:04:33;1.10;99.90
4052;DHT22;2040;50.924;11.604;2023-03-03T17:07:31;1.10;99.90
4052;DHT22;2040;50.924;11.604;2023-03-03T17:13:15;1.00;99.90
4052;DHT22;2040;50.924;11.604;2023-03-03T17:21:38;1.00;99.90
4052;DHT22;2040;50.924;11.604;2023-03-03T17:24:19;0.90;99.90
4052;DHT22;2040;50.924;11.604;2023-03-03T17:29:58;0.90;99.90
4052;DHT22;2040;50.924;11.604;2023-03-03T17:35:24;1.00;99.90
4052;DHT22;2040;50.924;11.604;2023-03-03T17:38:23;1.10;99.90
4052;DHT22;2040;50.924;11.604;2023-03-03T17:43:30;0.80;99.90
4052;DHT22;2040;50.924;11.604;2023-03-03T17:46:01;0.80;99.90
4052;DHT22;2040;50.924;11.604;2023-03-03T17:48:37;0.70;99.90
4052;DHT22;2040;50.924;11.604;2023-03-03T17:56:46;0.70;99.90
4052;DHT22;2040;50.924;11.604;2023-03-03T17:59:29;0.70;99.90
4052;DHT22;2040;50.924;11.604;2023-03-03T18:05:37;0.80;99.90
4052;DHT22;2040;50.924;11.604;2023-03-03T18:08:10;0.80;99.90
4052;DHT22;2040;50.924;11.604;2023-03-03T18:13:48;0.80;99.90
4052;DHT22;2040;50.924;11.604;2023-03-03T18:16:30;0.80;99.90
4052;DHT22;2040;50.924;11.604;2023-03-03T18:19:02;0.80;99.90
4052;DHT22;2040;50.924;11.604;2023-03-03T18:21:48;0.80;99.90
4052;DHT22;2040;50.924;11.604;2023-03-03T18:24:35;0.80;99.90
4052;DHT22;2040;50.924;11.604;2023-03-03T18:27:33;0.70;99.90
4052;DHT22;2040;50.924;11.604;2023-03-03T18:35:44;0.80;99.90
4052;DHT22;2040;50.924;11.604;2023-03-03T18:46:10;0.70;99.90
4052;DHT22;2040;50.924;11.604;2023-03-03T18:48:49;0.70;99.90
4052;DHT22;2040;50.924;11.604;2023-03-03T19:04:55;0.60;99.90
4052;DHT22;2040;50.924;11.604;2023-03-03T19:10:40;0.60;99.90
4052;DHT22;2040;50.924;11.604;2023-03-03T19:21:25;0.50;99.90
4052;DHT22;2040;50.924;11.604;2023-03-03T19:23:55;0.50;99.90
4052;DHT22;2040;50.924;11.604;2023-03-03T19:31:45;0.50;99.90
4052;DHT22;2040;50.924;11.604;2023-03-03T19:34:24;0.40;99.90
4052;DHT22;2040;50.924;11.604;2023-03-03T19:37:21;0.40;99.90
4052;DHT22;2040;50.924;11.604;2023-03-03T19:45:31;0.40;99.90
4052;DHT22;2040;50.924;11.604;2023-03-03T19:48:26;0.50;99.90
4052;DHT22;2040;50.924;11.604;2023-03-03T19:50:59;0.50;99.90
4052;DHT22;2040;50.924;11.604;2023-03-03T20:07:30;0.40;99.90
4052;DHT22;2040;50.924;11.604;2023-03-03T20:16:17;0.50;99.90
4052;DHT22;2040;50.924;11.604;2023-03-03T20:21:34;0.50;99.90
4052;DHT22;2040;50.924;11.604;2023-03-03T20:24:09;0.50;99.90
4052;DHT22;2040;50.924;11.604;2023-03-03T20:26:57;0.50;99.90
4052;DHT22;2040;50.924;11.604;2023-03-03T20:38:08;0.40;99.90
4052;DHT22;2040;50.924;11.604;2023-03-03T20:41:15;0.40;99.90
4052;DHT22;2040;50.924;11.604;2023-03-03T20:44:06;0.40;99.90
4052;DHT22;2040;50.924;11.604;2023-03-03T20:46:47;0.40;99.90
4052;DHT22;2040;50.924;11.604;2023-03-03T20:52:04;0.40;99.90
4052;DHT22;2040;50.924;11.604;2023-03-03T20:57:37;0.40;99.90
4052;DHT22;2040;50.924;11.604;2023-03-03T21:00:11;0.30;99.90
4052;DHT22;2040;50.924;11.604;2023-03-03T21:07:33;0.40;99.90
4052;DHT22;2040;50.924;11.604;2023-03-03T21:10:10;0.40;99.90
4052;DHT22;2040;50.924;11.604;2023-03-03T21:12:37;0.40;99.90
4052;DHT22;2040;50.924;11.604;2023-03-03T21:15:24;0.40;99.90
4052;DHT22;2040;50.924;11.604;2023-03-03T21:17:50;0.40;99.90
4052;DHT22;2040;50.924;11.604;2023-03-03T21:20:25;0.50;99.90
4052;DHT22;2040;50.924;11.604;2023-03-03T21:22:51;0.50;99.90
4052;DHT22;2040;50.924;11.604;2023-03-03T21:28:15;0.40;99.90
4052;DHT22;2040;50.924;11.604;2023-03-03T21:31:11;0.40;99.90
4052;DHT22;2040;50.924;11.604;2023-03-03T21:36:10;0.40;99.90
4052;DHT22;2040;50.924;11.604;2023-03-03T21:38:37;0.40;99.90
4052;DHT22;2040;50.924;11.604;2023-03-03T21:41:04;0.40;99.90
4052;DHT22;2040;50.924;11.604;2023-03-03T21:43:39;0.40;99.90
4052;DHT22;2040;50.924;11.604;2023-03-03T21:46:05;0.40;99.90
4052;DHT22;2040;50.924;11.604;2023-03-03T21:48:31;0.40;99.90
4052;DHT22;2040;50.924;11.604;2023-03-03T21:50:56;0.30;99.90
4052;DHT22;2040;50.924;11.604;2023-03-03T21:53:22;0.50;99.90
4052;DHT22;2040;50.924;11.604;2023-03-03T21:55:49;0.40;99.90
4052;DHT22;2040;50.924;11.604;2023-03-03T21:58:15;0.40;99.90
4052;DHT22;2040;50.924;11.604;2023-03-03T22:00:41;0.30;99.90
4052;DHT22;2040;50.924;11.604;2023-03-03T22:03:10;0.30;99.90
4052;DHT22;2040;50.924;11.604;2023-03-03T22:05:36;0.40;99.90
4052;DHT22;2040;50.924;11.604;2023-03-03T22:08:02;0.40;99.90
4052;DHT22;2040;50.924;11.604;2023-03-03T22:10:28;0.40;99.90
4052;DHT22;2040;50.924;11.604;2023-03-03T22:12:53;0.40;99.90
4052;DHT22;2040;50.924;11.604;2023-03-03T22:15:19;0.40;99.90
4052;DHT22;2040;50.924;11.604;2023-03-03T22:17:45;0.40;99.90
4052;DHT22;2040;50.924;11.604;2023-03-03T22:20:11;0.40;99.90
4052;DHT22;2040;50.924;11.604;2023-03-03T22:22:42;0.50;99.90
4052;DHT22;2040;50.924;11.604;2023-03-03T22:25:09;0.40;99.90
4052;DHT22;2040;50.924;11.604;2023-03-03T22:27:34;0.40;99.90
4052;DHT22;2040;50.924;11.604;2023-03-03T22:30:01;0.40;99.90
4052;DHT22;2040;50.924;11.604;2023-03-03T22:32:27;0.40;99.90
4052;DHT22;2040;50.924;11.604;2023-03-03T22:34:54;0.30;99.90
4052;DHT22;2040;50.924;11.604;2023-03-03T22:37:20;0.30;99.90
4052;DHT22;2040;50.924;11.604;2023-03-03T22:39:45;0.30;99.90